Blackstone, MA (01504)

2:02 PM EDT on October 31, 2014 (GMT -0400)
The North End | Change Station
CLOSE
Current Station
Personal Weather Station
Location: Woonsocket, RI
Elevation: 242 ft
Nearby Weather Stations

Elev 242 ft 42.01 °N, 71.52 °W | Updated 17 seconds ago

Overcast
Overcast
53.6 °F
Feels Like 53.6 °F
N
0.0
Wind Variable Wind from West
Gusts 0.0 mph

Today
High -- | Low -- °F
--% Chance of Precip.
Yesterday
High -- | Low -- °F
Precip. -- in
7:17 AM 5:41 PM
First Quarter, 57% visible
Pressure 29.97 in
Visibility 10.0 miles
Clouds Scattered Clouds 3600 ft
Overcast 4400 ft
Dew Point 25 °F
Humidity 33%
Rainfall 0.00 in
Snow Depth Not available.
UV 1 out of 12
Pollen .50 out of 12
Air Quality Not available.
Flu Activity Not available.
METAR KSFZ 311755Z 09008KT 10SM SCT036 OVC044 11/01 A2997 RMK AO1 10120 20040 57014

More Conditions Fewer Conditions

Pressure 29.97 in
Visibility 10.0 miles
Clouds Scattered Clouds 3600 ft
Overcast 4400 ft
Dew Point 25 °F
Humidity 33%
Rainfall 0.00 in
Snow Depth Not available.
UV 1 out of 12
Pollen .50 out of 12
Air Quality Not available.
Flu Activity Not available.
METAR KSFZ 311755Z 09008KT 10SM SCT036 OVC044 11/01 A2997 RMK AO1 10120 20040 57014

More Conditions Fewer Conditions

10-Day Weather Forecast

Almanac

Astronomy

Oct. 31, 2014 Rise Set
Actual Time
Civil Twilight
Nautical Twilight
Astronomical Twilight
Moon
Length of Visible Light
Length of Day
Tomorrow will be .
, % of the Moon is Illuminated

Today's Extremes

State Highs State Lows

Community

WunderPhotos

Upload Photos

1,766,679 photos uploaded!

WunderBlogs® & News

Nearby

Air Quality

  Air Quality AQ Index Pollutant
Not available.

Snow Depth

Station Depth Elevation

Earthquake Activity

City Distance Mag. Time & Date
Minimum magnitude displayed is 2.5.

Coastal Water Temperatures

Place Temperature

Nearby Weather Stations